Time;durP1;ratioP1;P1;durP2;ratioP2;P2;SDS_P1;SDS_P2;PMS_P1;PMS_P2;Temp;Humidity;BMP_temperature;BMP_pressure;BME280_temperature;BME280_humidity;BME280_pressure;Samples;Min_cycle;Max_cycle;Signal;HPM_P1;HPM_P2
2023/07/02 00:00:44;;;;;;;;;;;19.30;99.90;;;;;;2039433;29;20401;-76
2023/07/02 00:01:44;;;;;;;;;;;19.30;99.90;;;;;;2034734;29;19914;-75
2023/07/02 00:02:45;;;;;;;;;;;19.30;99.90;;;;;;2035210;29;19957;-75
2023/07/02 00:03:45;;;;;;;;;;;19.30;99.90;;;;;;2037040;29;19910;-76
2023/07/02 00:04:46;;;;;;;;;;;19.30;99.90;;;;;;2042449;28;19918;-76
2023/07/02 00:05:47;;;;;;;;;;;19.30;99.90;;;;;;2042443;28;20325;-77
2023/07/02 00:06:48;;;;;;;;;;;19.30;99.90;;;;;;2042131;28;20393;-76
2023/07/02 00:07:48;;;;;;;;;;;19.30;99.90;;;;;;2034321;29;19954;-76
2023/07/02 00:08:48;;;;;;;;;;;19.30;99.90;;;;;;2034820;29;19926;-76
2023/07/02 00:09:49;;;;;;;;;;;19.20;99.90;;;;;;2037503;29;19915;-76
2023/07/02 00:10:49;;;;;;;;;;;19.30;99.90;;;;;;2037388;28;19910;-76
2023/07/02 00:11:50;;;;;;;;;;;19.30;99.90;;;;;;2037081;29;19970;-75
2023/07/02 00:12:50;;;;;;;;;;;19.20;99.90;;;;;;2035341;29;19919;-76
2023/07/02 00:13:51;;;;;;;;;;;19.20;99.90;;;;;;2039882;29;19914;-76
2023/07/02 00:14:52;;;;;;;;;;;19.20;99.90;;;;;;2038118;29;19956;-76
2023/07/02 00:15:53;;;;;;;;;;;19.20;99.90;;;;;;2039532;29;19940;-76
2023/07/02 00:16:53;;;;;;;;;;;19.20;99.90;;;;;;2041092;29;19910;-76
2023/07/02 00:17:57;;;;;;;;;;;19.20;99.90;;;;;;2039158;28;19914;-76
2023/07/02 00:18:57;;;;;;;;;;;19.20;99.90;;;;;;2039202;28;19973;-78
2023/07/02 00:20:06;;;;;;;;;;;19.20;99.90;;;;;;2037933;28;19918;-76
2023/07/02 00:21:06;;;;;;;;;;;19.30;99.90;;;;;;2038507;29;19914;-76
2023/07/02 00:22:10;;;;;;;;;;;19.20;99.90;;;;;;2038863;28;19911;-76
2023/07/02 00:23:10;;;;;;;;;;;19.20;99.90;;;;;;2030425;29;19915;-76
2023/07/02 00:24:11;;;;;;;;;;;19.20;99.90;;;;;;2040338;29;19922;-77
2023/07/02 00:25:12;;;;;;;;;;;19.20;99.90;;;;;;2048280;28;19968;-77
2023/07/02 00:26:13;;;;;;;;;;;19.20;99.90;;;;;;2044016;28;19914;-77
2023/07/02 00:27:14;;;;;;;;;;;19.30;99.90;;;;;;2038072;29;19915;-77
2023/07/02 00:28:14;;;;;;;;;;;19.30;99.90;;;;;;2039612;29;19949;-77
2023/07/02 00:29:15;;;;;;;;;;;19.30;99.90;;;;;;2040097;28;19910;-76
2023/07/02 00:30:15;;;;;;;;;;;19.30;99.90;;;;;;2039804;28;19915;-76
2023/07/02 00:31:16;;;;;;;;;;;19.30;99.90;;;;;;2041745;28;19915;-76
2023/07/02 00:32:16;;;;;;;;;;;19.30;99.90;;;;;;2036651;28;20387;-75
2023/07/02 00:33:17;;;;;;;;;;;19.30;99.90;;;;;;2040359;29;20474;-75
2023/07/02 00:34:18;;;;;;;;;;;19.30;99.90;;;;;;2032547;29;19914;-77
2023/07/02 00:35:18;;;;;;;;;;;19.20;99.90;;;;;;2037808;29;20338;-77
2023/07/02 00:36:18;;;;;;;;;;;19.20;99.90;;;;;;2042007;29;19969;-77
2023/07/02 00:37:19;;;;;;;;;;;19.20;99.90;;;;;;2039173;28;19925;-76
2023/07/02 00:38:20;;;;;;;;;;;19.20;99.90;;;;;;2047048;28;19915;-77
2023/07/02 00:39:20;;;;;;;;;;;19.20;99.90;;;;;;2038882;28;19907;-77
2023/07/02 00:40:21;;;;;;;;;;;19.30;99.90;;;;;;2037820;29;19915;-78
2023/07/02 00:41:21;;;;;;;;;;;19.30;99.90;;;;;;2036032;29;19938;-77
2023/07/02 00:42:23;;;;;;;;;;;19.20;99.90;;;;;;2037013;29;19914;-76
2023/07/02 00:43:23;;;;;;;;;;;19.30;99.90;;;;;;2036037;29;19919;-76
2023/07/02 00:44:24;;;;;;;;;;;19.30;99.90;;;;;;2040430;29;20025;-77
2023/07/02 00:45:26;;;;;;;;;;;19.20;99.90;;;;;;2045644;28;20393;-77
2023/07/02 00:46:26;;;;;;;;;;;19.20;99.90;;;;;;2036658;29;19966;-77
2023/07/02 00:47:27;;;;;;;;;;;19.30;99.90;;;;;;2043504;28;20382;-77
2023/07/02 00:48:28;;;;;;;;;;;19.20;99.90;;;;;;2045692;29;19914;-77
2023/07/02 00:49:28;;;;;;;;;;;19.20;99.90;;;;;;2037767;28;19914;-76
2023/07/02 00:50:29;;;;;;;;;;;19.20;99.90;;;;;;2036270;28;19994;-77
2023/07/02 00:51:29;;;;;;;;;;;19.20;99.90;;;;;;2040958;29;19925;-77
2023/07/02 00:52:30;;;;;;;;;;;19.20;99.90;;;;;;2043709;28;19922;-77
2023/07/02 00:53:32;;;;;;;;;;;19.20;99.90;;;;;;2045771;28;20354;-77
2023/07/02 00:54:32;;;;;;;;;;;19.10;99.90;;;;;;2046998;28;19921;-77
2023/07/02 00:55:34;;;;;;;;;;;19.20;99.90;;;;;;2039244;28;19914;-76
2023/07/02 00:56:35;;;;;;;;;;;19.20;99.90;;;;;;2038994;28;19915;-76
2023/07/02 00:57:35;;;;;;;;;;;19.10;99.90;;;;;;2049303;28;19918;-77
2023/07/02 00:58:38;;;;;;;;;;;19.10;99.90;;;;;;2041861;28;19954;-77
2023/07/02 00:59:38;;;;;;;;;;;19.10;99.90;;;;;;2040280;29;19920;-77
2023/07/02 01:00:39;;;;;;;;;;;19.20;99.90;;;;;;2041005;29;19915;-77
2023/07/02 01:01:39;;;;;;;;;;;19.10;99.90;;;;;;2048412;28;19914;-77
2023/07/02 01:02:43;;;;;;;;;;;19.10;99.90;;;;;;2047974;28;19914;-77
2023/07/02 01:03:53;;;;;;;;;;;19.10;99.90;;;;;;2048636;28;19911;-74
2023/07/02 01:04:58;;;;;;;;;;;19.10;99.90;;;;;;2047404;28;19910;-76
2023/07/02 01:06:01;;;;;;;;;;;19.10;99.90;;;;;;2040398;29;19997;-76
2023/07/02 01:07:04;;;;;;;;;;;19.10;99.90;;;;;;2044210;28;19918;-76
2023/07/02 01:08:05;;;;;;;;;;;19.10;99.90;;;;;;2047514;28;19911;-76
2023/07/02 01:09:05;;;;;;;;;;;19.10;99.90;;;;;;2040259;29;20400;-75
2023/07/02 01:10:06;;;;;;;;;;;19.10;99.90;;;;;;2040735;28;19938;-75
2023/07/02 01:11:07;;;;;;;;;;;19.10;99.90;;;;;;2043296;28;19917;-76
2023/07/02 01:12:08;;;;;;;;;;;19.10;99.90;;;;;;2040055;29;19990;-74
2023/07/02 01:13:11;;;;;;;;;;;19.10;99.90;;;;;;2042255;29;19976;-78
2023/07/02 01:14:16;;;;;;;;;;;19.10;99.90;;;;;;2044795;28;19910;-77
2023/07/02 01:15:17;;;;;;;;;;;19.10;99.90;;;;;;2049710;28;19916;-77
2023/07/02 01:16:18;;;;;;;;;;;19.10;99.90;;;;;;2037407;29;19918;-76
2023/07/02 01:17:19;;;;;;;;;;;19.10;99.90;;;;;;2039731;28;20421;-75
2023/07/02 01:18:21;;;;;;;;;;;19.00;99.90;;;;;;2039279;28;19915;-76
2023/07/02 01:19:25;;;;;;;;;;;19.00;99.90;;;;;;2038550;28;19918;-77
2023/07/02 01:20:26;;;;;;;;;;;19.00;99.90;;;;;;2043797;28;19919;-76
2023/07/02 01:21:28;;;;;;;;;;;19.00;99.90;;;;;;2039561;28;19982;-76
2023/07/02 01:22:30;;;;;;;;;;;19.00;99.90;;;;;;2041175;28;19922;-76
2023/07/02 01:23:30;;;;;;;;;;;19.00;99.90;;;;;;2041402;28;20002;-78
2023/07/02 01:24:31;;;;;;;;;;;19.00;99.90;;;;;;2039390;28;19990;-75
2023/07/02 01:25:31;;;;;;;;;;;19.10;99.90;;;;;;2031554;29;19919;-76
2023/07/02 01:26:33;;;;;;;;;;;19.10;99.90;;;;;;2040036;29;19985;-76
2023/07/02 01:27:35;;;;;;;;;;;19.10;99.90;;;;;;2035890;29;19914;-76
2023/07/02 01:28:37;;;;;;;;;;;19.10;99.90;;;;;;2040037;29;19915;-77
2023/07/02 01:29:37;;;;;;;;;;;19.10;99.90;;;;;;2045419;28;20013;-77
2023/07/02 01:30:38;;;;;;;;;;;19.10;99.90;;;;;;2045692;28;20282;-85
2023/07/02 01:31:38;;;;;;;;;;;19.10;99.90;;;;;;2037975;29;19915;-71
2023/07/02 01:32:39;;;;;;;;;;;19.10;99.90;;;;;;2041108;28;19990;-75
2023/07/02 01:33:40;;;;;;;;;;;19.10;99.90;;;;;;2032152;29;20413;-75
2023/07/02 01:34:40;;;;;;;;;;;19.00;99.90;;;;;;2036144;29;20005;-74
2023/07/02 01:35:43;;;;;;;;;;;19.00;99.90;;;;;;2047620;28;19914;-75
2023/07/02 01:36:43;;;;;;;;;;;19.00;99.90;;;;;;2049575;28;19957;-75
2023/07/02 01:37:44;;;;;;;;;;;19.00;99.90;;;;;;2046623;28;19995;-75
2023/07/02 01:38:45;;;;;;;;;;;19.00;99.90;;;;;;2036720;28;20026;-75
2023/07/02 01:39:45;;;;;;;;;;;19.00;99.90;;;;;;2030102;29;20568;-75
2023/07/02 01:40:46;;;;;;;;;;;19.00;99.90;;;;;;2035330;29;19970;-75
2023/07/02 01:41:50;;;;;;;;;;;19.00;99.90;;;;;;2043804;28;19917;-75
2023/07/02 01:42:51;;;;;;;;;;;19.00;99.90;;;;;;2041150;29;19921;-74
2023/07/02 01:43:51;;;;;;;;;;;19.00;99.90;;;;;;2039352;29;19915;-75
2023/07/02 01:44:52;;;;;;;;;;;19.00;99.90;;;;;;2041084;28;19919;-74
2023/07/02 01:45:52;;;;;;;;;;;19.00;99.90;;;;;;2038238;29;20430;-74
2023/07/02 01:46:55;;;;;;;;;;;19.00;99.90;;;;;;2035979;29;19982;-74
2023/07/02 01:47:56;;;;;;;;;;;19.00;99.90;;;;;;2040506;29;20472;-75
2023/07/02 01:48:56;;;;;;;;;;;19.00;99.90;;;;;;2041855;29;19911;-74
2023/07/02 01:49:57;;;;;;;;;;;19.00;99.90;;;;;;2040020;28;20278;-74
2023/07/02 01:50:57;;;;;;;;;;;19.00;99.90;;;;;;2038393;28;20001;-74
2023/07/02 01:51:58;;;;;;;;;;;19.00;99.90;;;;;;2038711;29;19911;-74
2023/07/02 01:52:59;;;;;;;;;;;19.00;99.90;;;;;;2041424;29;19922;-74
2023/07/02 01:54:01;;;;;;;;;;;19.00;99.90;;;;;;2040867;29;20404;-74
2023/07/02 01:55:01;;;;;;;;;;;19.00;99.90;;;;;;2040715;29;19973;-74
2023/07/02 01:56:02;;;;;;;;;;;19.00;99.90;;;;;;2040305;28;19914;-74
2023/07/02 01:57:03;;;;;;;;;;;19.00;99.90;;;;;;2040384;29;19969;-75
2023/07/02 01:58:04;;;;;;;;;;;19.00;99.90;;;;;;2047504;28;19914;-75
2023/07/02 01:59:04;;;;;;;;;;;19.00;99.90;;;;;;2048772;28;19910;-75
2023/07/02 02:00:06;;;;;;;;;;;19.00;99.90;;;;;;2036075;28;20063;-74
2023/07/02 02:01:16;;;;;;;;;;;19.00;99.90;;;;;;2033602;29;20368;-75
2023/07/02 02:02:16;;;;;;;;;;;19.00;99.90;;;;;;2038299;29;19925;-74
2023/07/02 02:03:17;;;;;;;;;;;19.00;99.90;;;;;;2033839;28;19914;-74
2023/07/02 02:04:17;;;;;;;;;;;19.00;99.90;;;;;;2041598;28;19914;-74
2023/07/02 02:05:18;;;;;;;;;;;19.00;99.90;;;;;;2035725;28;19914;-75
2023/07/02 02:06:18;;;;;;;;;;;19.00;99.90;;;;;;2044210;28;19997;-74
2023/07/02 02:07:19;;;;;;;;;;;18.90;99.90;;;;;;2035478;29;19910;-73
2023/07/02 02:08:20;;;;;;;;;;;19.00;99.90;;;;;;2040634;28;19942;-74
2023/07/02 02:09:21;;;;;;;;;;;19.00;99.90;;;;;;2043243;28;19914;-73
2023/07/02 02:10:21;;;;;;;;;;;18.90;99.90;;;;;;2043098;28;19921;-75
2023/07/02 02:11:22;;;;;;;;;;;18.90;99.90;;;;;;2042747;28;20362;-75
2023/07/02 02:12:22;;;;;;;;;;;18.90;99.90;;;;;;2033541;29;19977;-74
2023/07/02 02:13:23;;;;;;;;;;;18.90;99.90;;;;;;2035639;29;19923;-74
2023/07/02 02:14:23;;;;;;;;;;;18.90;99.90;;;;;;2035208;28;19954;-74
2023/07/02 02:15:24;;;;;;;;;;;18.90;99.90;;;;;;2027395;29;19950;-73
2023/07/02 02:16:25;;;;;;;;;;;18.90;99.90;;;;;;2027337;29;20017;-74
2023/07/02 02:17:25;;;;;;;;;;;18.90;99.90;;;;;;2041644;29;19917;-73
2023/07/02 02:18:26;;;;;;;;;;;18.90;99.90;;;;;;2038276;28;19918;-74
2023/07/02 02:19:26;;;;;;;;;;;18.80;99.90;;;;;;2038383;29;20287;-74
2023/07/02 02:20:27;;;;;;;;;;;18.80;99.90;;;;;;2030624;29;19958;-74
2023/07/02 02:21:27;;;;;;;;;;;18.80;99.90;;;;;;2041429;29;20338;-74
2023/07/02 02:22:28;;;;;;;;;;;18.80;99.90;;;;;;2040106;29;19918;-74
2023/07/02 02:23:28;;;;;;;;;;;18.70;99.90;;;;;;2047176;28;19922;-74
2023/07/02 02:24:29;;;;;;;;;;;18.80;99.90;;;;;;2048543;28;19910;-74
2023/07/02 02:25:29;;;;;;;;;;;18.70;99.90;;;;;;2039112;28;19917;-74
2023/07/02 02:26:30;;;;;;;;;;;18.70;99.90;;;;;;2039348;29;19917;-75
2023/07/02 02:27:31;;;;;;;;;;;18.60;99.90;;;;;;2048429;28;20083;-75
2023/07/02 02:28:31;;;;;;;;;;;18.70;99.90;;;;;;2035339;29;19926;-75
2023/07/02 02:29:32;;;;;;;;;;;18.70;99.90;;;;;;2037460;28;20138;-75
2023/07/02 02:30:32;;;;;;;;;;;18.60;99.90;;;;;;2046355;28;19914;-73
2023/07/02 02:31:32;;;;;;;;;;;18.60;99.90;;;;;;2046543;28;20445;-73
2023/07/02 02:32:34;;;;;;;;;;;18.60;99.90;;;;;;2041230;28;20275;-74
2023/07/02 02:33:35;;;;;;;;;;;18.60;99.90;;;;;;2028175;29;19919;-74
2023/07/02 02:34:38;;;;;;;;;;;18.60;99.90;;;;;;2043722;28;19934;-74
2023/07/02 02:35:38;;;;;;;;;;;18.60;99.90;;;;;;2047422;28;20357;-74
2023/07/02 02:36:39;;;;;;;;;;;18.60;99.90;;;;;;2041112;29;19916;-75
2023/07/02 02:37:39;;;;;;;;;;;18.60;99.90;;;;;;2038381;29;20684;-74
2023/07/02 02:38:41;;;;;;;;;;;18.50;99.90;;;;;;2036175;28;20271;-73
2023/07/02 02:39:41;;;;;;;;;;;18.60;99.90;;;;;;2042715;28;19921;-73
2023/07/02 02:40:41;;;;;;;;;;;18.60;99.90;;;;;;2041461;29;19937;-73
2023/07/02 02:41:44;;;;;;;;;;;18.60;99.90;;;;;;2021125;29;19949;-74
2023/07/02 02:42:48;;;;;;;;;;;18.50;99.90;;;;;;2028931;29;20388;-74
2023/07/02 02:43:48;;;;;;;;;;;18.50;99.90;;;;;;2027854;29;19911;-75
2023/07/02 02:44:52;;;;;;;;;;;18.50;99.90;;;;;;2034431;29;19938;-76
2023/07/02 02:45:53;;;;;;;;;;;18.50;99.90;;;;;;2046261;28;19993;-75
2023/07/02 02:46:54;;;;;;;;;;;18.50;99.90;;;;;;2043467;28;19977;-74
2023/07/02 02:47:54;;;;;;;;;;;18.50;99.90;;;;;;2040572;29;19915;-74
2023/07/02 02:48:55;;;;;;;;;;;18.60;99.90;;;;;;2037875;28;20397;-75
2023/07/02 02:49:55;;;;;;;;;;;18.60;99.90;;;;;;2038171;28;19917;-75
2023/07/02 02:50:56;;;;;;;;;;;18.60;99.90;;;;;;2048541;28;19914;-75
2023/07/02 02:51:56;;;;;;;;;;;18.60;99.90;;;;;;2047346;28;20012;-75
2023/07/02 02:52:57;;;;;;;;;;;18.60;99.90;;;;;;2047176;28;19949;-75
2023/07/02 02:54:00;;;;;;;;;;;18.70;99.90;;;;;;2039556;29;20568;-75
2023/07/02 02:55:00;;;;;;;;;;;18.70;99.90;;;;;;2039847;29;19916;-73
2023/07/02 02:56:01;;;;;;;;;;;18.60;99.90;;;;;;2044674;28;19910;-74
2023/07/02 02:57:01;;;;;;;;;;;18.70;99.90;;;;;;2042605;28;19915;-74
2023/07/02 02:58:02;;;;;;;;;;;18.70;99.90;;;;;;2034885;29;19953;-75
2023/07/02 02:59:02;;;;;;;;;;;18.70;99.90;;;;;;2037507;29;19919;-74
2023/07/02 03:00:04;;;;;;;;;;;18.70;99.90;;;;;;2047220;28;19918;-74
2023/07/02 03:01:10;;;;;;;;;;;18.70;99.90;;;;;;2047206;28;20289;-74
2023/07/02 03:02:10;;;;;;;;;;;18.70;99.90;;;;;;2043041;28;19949;-74
2023/07/02 03:03:14;;;;;;;;;;;18.60;99.90;;;;;;2046717;28;19921;-75
2023/07/02 03:04:15;;;;;;;;;;;18.60;99.90;;;;;;2038993;29;19964;-75
2023/07/02 03:05:16;;;;;;;;;;;18.60;99.90;;;;;;2042740;28;20330;-75
2023/07/02 03:06:16;;;;;;;;;;;18.60;99.90;;;;;;2044666;28;19910;-74
2023/07/02 03:07:17;;;;;;;;;;;18.60;99.90;;;;;;2035298;29;19915;-74
2023/07/02 03:08:17;;;;;;;;;;;18.60;99.90;;;;;;2031724;29;20278;-74
2023/07/02 03:09:19;;;;;;;;;;;18.60;99.90;;;;;;2039459;28;20336;-75
2023/07/02 03:10:19;;;;;;;;;;;18.60;99.90;;;;;;2049000;28;19993;-75
2023/07/02 03:11:20;;;;;;;;;;;18.60;99.90;;;;;;2034690;29;19917;-74
2023/07/02 03:12:25;;;;;;;;;;;18.70;99.90;;;;;;2028027;29;19926;-75
2023/07/02 03:13:25;;;;;;;;;;;18.70;99.90;;;;;;2039321;29;20285;-74
2023/07/02 03:14:26;;;;;;;;;;;18.60;99.90;;;;;;2047274;28;19917;-74
2023/07/02 03:15:26;;;;;;;;;;;18.60;99.90;;;;;;2048121;28;19910;-75
2023/07/02 03:16:26;;;;;;;;;;;18.70;99.90;;;;;;2038103;29;20355;-75
2023/07/02 03:17:27;;;;;;;;;;;18.70;99.90;;;;;;2041967;28;19986;-76
2023/07/02 03:18:27;;;;;;;;;;;18.60;99.90;;;;;;2046100;28;19954;-75
2023/07/02 03:19:28;;;;;;;;;;;18.60;99.90;;;;;;2041658;28;19982;-75
2023/07/02 03:20:28;;;;;;;;;;;18.60;99.90;;;;;;2042950;28;20460;-75
2023/07/02 03:21:29;;;;;;;;;;;18.60;99.90;;;;;;2047438;28;19920;-75
2023/07/02 03:22:30;;;;;;;;;;;18.60;99.90;;;;;;2035624;29;19967;-74
2023/07/02 03:23:30;;;;;;;;;;;18.60;99.90;;;;;;2040568;28;19910;-75
2023/07/02 03:24:31;;;;;;;;;;;18.60;99.90;;;;;;2036262;28;20578;-75
2023/07/02 03:25:31;;;;;;;;;;;18.60;99.90;;;;;;2042517;28;19950;-75
2023/07/02 03:26:32;;;;;;;;;;;18.60;99.90;;;;;;2044716;29;19954;-75
2023/07/02 03:27:32;;;;;;;;;;;18.60;99.90;;;;;;2035452;29;19910;-75
2023/07/02 03:28:34;;;;;;;;;;;18.60;99.90;;;;;;2035570;28;19918;-75
2023/07/02 03:29:35;;;;;;;;;;;18.60;99.90;;;;;;2035337;29;19915;-75
2023/07/02 03:30:35;;;;;;;;;;;18.70;99.90;;;;;;2035484;29;20005;-75
2023/07/02 03:31:36;;;;;;;;;;;18.70;99.90;;;;;;2047072;28;20289;-75
2023/07/02 03:32:36;;;;;;;;;;;18.70;99.90;;;;;;2047100;28;19993;-75
2023/07/02 03:33:37;;;;;;;;;;;18.70;99.90;;;;;;2038216;29;20025;-75
2023/07/02 03:34:37;;;;;;;;;;;18.70;99.90;;;;;;2044386;28;19961;-76
2023/07/02 03:35:38;;;;;;;;;;;18.70;99.90;;;;;;2044562;28;20413;-75
2023/07/02 03:36:38;;;;;;;;;;;18.70;99.90;;;;;;2036631;29;19968;-76
2023/07/02 03:37:41;;;;;;;;;;;18.70;99.90;;;;;;2034686;29;19959;-75
2023/07/02 03:38:42;;;;;;;;;;;18.70;99.90;;;;;;2035897;29;20465;-75
2023/07/02 03:39:42;;;;;;;;;;;18.80;99.90;;;;;;2034696;29;19918;-75
2023/07/02 03:40:43;;;;;;;;;;;18.70;99.90;;;;;;2040109;29;19914;-74
2023/07/02 03:41:44;;;;;;;;;;;18.70;99.90;;;;;;2048251;28;19914;-75
2023/07/02 03:42:44;;;;;;;;;;;18.70;99.90;;;;;;2043544;28;20346;-74
2023/07/02 03:43:45;;;;;;;;;;;18.70;99.90;;;;;;2045958;28;19918;-74
2023/07/02 03:44:45;;;;;;;;;;;18.70;99.90;;;;;;2040220;28;20396;-74
2023/07/02 03:45:46;;;;;;;;;;;18.60;99.90;;;;;;2041031;29;19921;-75
2023/07/02 03:46:46;;;;;;;;;;;18.70;99.90;;;;;;2034995;29;20270;-75
2023/07/02 03:47:47;;;;;;;;;;;18.60;99.90;;;;;;2039056;29;20028;-75
2023/07/02 03:48:47;;;;;;;;;;;18.60;99.90;;;;;;2039140;29;19962;-77
2023/07/02 03:49:48;;;;;;;;;;;18.70;99.90;;;;;;2039161;29;20009;-74
2023/07/02 03:50:48;;;;;;;;;;;18.70;99.90;;;;;;2048535;28;19946;-75
2023/07/02 03:51:49;;;;;;;;;;;18.70;99.90;;;;;;2045722;28;19945;-75
2023/07/02 03:52:49;;;;;;;;;;;18.70;99.90;;;;;;2045670;28;20432;-74
2023/07/02 03:53:50;;;;;;;;;;;18.70;99.90;;;;;;2045879;28;19957;-75
2023/07/02 03:54:50;;;;;;;;;;;18.70;99.90;;;;;;2041846;28;19966;-75
2023/07/02 03:55:51;;;;;;;;;;;18.70;99.90;;;;;;2044170;28;20290;-75
2023/07/02 03:56:51;;;;;;;;;;;18.70;99.90;;;;;;2045498;28;19970;-75
2023/07/02 03:57:52;;;;;;;;;;;18.70;99.90;;;;;;2040350;29;19914;-74
2023/07/02 03:58:52;;;;;;;;;;;18.70;99.90;;;;;;2050045;28;19914;-75
2023/07/02 03:59:53;;;;;;;;;;;18.70;99.90;;;;;;2042342;28;20001;-75
2023/07/02 04:00:53;;;;;;;;;;;18.70;99.90;;;;;;2046856;28;19914;-75
2023/07/02 04:01:54;;;;;;;;;;;18.60;99.90;;;;;;2039170;28;19915;-75
2023/07/02 04:02:54;;;;;;;;;;;18.60;99.90;;;;;;2039387;29;19993;-75
2023/07/02 04:03:56;;;;;;;;;;;18.60;99.90;;;;;;2042360;28;19915;-76
2023/07/02 04:04:56;;;;;;;;;;;18.70;99.90;;;;;;2044181;28;20471;-75
2023/07/02 04:05:57;;;;;;;;;;;18.60;99.90;;;;;;2044910;28;19922;-75
2023/07/02 04:06:57;;;;;;;;;;;18.70;99.90;;;;;;2044000;28;19915;-75
2023/07/02 04:07:58;;;;;;;;;;;18.70;99.90;;;;;;2045954;28;19983;-75
2023/07/02 04:08:58;;;;;;;;;;;18.70;99.90;;;;;;2034766;29;19940;-75
2023/07/02 04:09:59;;;;;;;;;;;18.70;99.90;;;;;;2039527;29;19918;-75
2023/07/02 04:10:59;;;;;;;;;;;18.70;99.90;;;;;;2040575;28;19913;-74
2023/07/02 04:12:01;;;;;;;;;;;18.60;99.90;;;;;;2038970;28;20010;-74
2023/07/02 04:13:01;;;;;;;;;;;18.60;99.90;;;;;;2038518;28;19917;-74
2023/07/02 04:14:02;;;;;;;;;;;18.60;99.90;;;;;;2050104;28;20416;-75
2023/07/02 04:15:03;;;;;;;;;;;18.60;99.90;;;;;;2048169;28;19922;-74
2023/07/02 04:16:03;;;;;;;;;;;18.60;99.90;;;;;;2040019;28;19907;-75
2023/07/02 04:17:04;;;;;;;;;;;18.60;99.90;;;;;;2042970;28;19921;-75
2023/07/02 04:18:05;;;;;;;;;;;18.50;99.90;;;;;;2045619;28;19957;-75
2023/07/02 04:19:05;;;;;;;;;;;18.50;99.90;;;;;;2048709;28;20030;-75
2023/07/02 04:20:07;;;;;;;;;;;18.50;99.90;;;;;;2042544;29;20005;-76
2023/07/02 04:21:08;;;;;;;;;;;18.50;99.90;;;;;;2041439;29;19961;-76
2023/07/02 04:22:08;;;;;;;;;;;18.40;99.90;;;;;;2050136;28;20601;-75
2023/07/02 04:23:08;;;;;;;;;;;18.40;99.90;;;;;;2048440;28;19926;-75
2023/07/02 04:24:09;;;;;;;;;;;18.30;99.90;;;;;;2041781;29;19917;-75
2023/07/02 04:25:09;;;;;;;;;;;18.30;99.90;;;;;;2039084;29;19970;-75
2023/07/02 04:26:10;;;;;;;;;;;18.30;99.90;;;;;;2039801;29;20014;-75
2023/07/02 04:27:11;;;;;;;;;;;18.30;99.90;;;;;;2041677;28;19926;-75
2023/07/02 04:28:11;;;;;;;;;;;18.20;99.90;;;;;;2036064;29;19910;-75
2023/07/02 04:29:11;;;;;;;;;;;18.20;99.90;;;;;;2029548;29;19915;-75
2023/07/02 04:30:13;;;;;;;;;;;18.20;99.90;;;;;;2031466;29;20019;-75
2023/07/02 04:31:14;;;;;;;;;;;18.10;99.90;;;;;;2037454;29;19968;-74
2023/07/02 04:32:14;;;;;;;;;;;18.10;99.90;;;;;;2042204;29;19914;-74
2023/07/02 04:33:15;;;;;;;;;;;17.90;99.90;;;;;;2039016;28;19918;-74
2023/07/02 04:34:15;;;;;;;;;;;17.90;99.90;;;;;;2039005;28;19953;-73
2023/07/02 04:35:16;;;;;;;;;;;17.80;99.90;;;;;;2038896;29;19910;-74
2023/07/02 04:36:16;;;;;;;;;;;17.70;99.90;;;;;;2042093;28;19934;-74
2023/07/02 04:37:17;;;;;;;;;;;17.60;99.90;;;;;;2036617;29;20457;-75
2023/07/02 04:38:17;;;;;;;;;;;17.60;99.90;;;;;;2037819;28;19962;-75
2023/07/02 04:39:18;;;;;;;;;;;17.60;99.90;;;;;;2040649;29;19918;-75
2023/07/02 04:40:18;;;;;;;;;;;17.50;99.90;;;;;;2041425;29;19926;-75
2023/07/02 04:41:19;;;;;;;;;;;17.50;99.90;;;;;;2041655;29;19916;-75
2023/07/02 04:42:19;;;;;;;;;;;17.40;99.90;;;;;;2039756;28;19949;-75
2023/07/02 04:43:20;;;;;;;;;;;17.40;99.90;;;;;;2039919;28;19910;-75
2023/07/02 04:44:30;;;;;;;;;;;17.40;99.90;;;;;;2041745;28;19911;-75
2023/07/02 04:45:35;;;;;;;;;;;17.40;99.90;;;;;;2036220;29;19938;-74
2023/07/02 04:46:35;;;;;;;;;;;17.40;99.90;;;;;;2042241;28;19961;-76
2023/07/02 04:47:36;;;;;;;;;;;17.40;99.90;;;;;;2043896;28;20425;-74
2023/07/02 04:48:36;;;;;;;;;;;17.50;99.90;;;;;;2044857;28;20056;-76
2023/07/02 04:49:37;;;;;;;;;;;17.40;99.90;;;;;;2041850;29;19970;-75
2023/07/02 04:50:38;;;;;;;;;;;17.40;99.90;;;;;;2043127;28;19911;-75
2023/07/02 04:51:38;;;;;;;;;;;17.40;99.90;;;;;;2042097;29;20424;-75
2023/07/02 04:52:39;;;;;;;;;;;17.40;99.90;;;;;;2036375;29;19946;-75
2023/07/02 04:53:39;;;;;;;;;;;17.50;99.90;;;;;;2038927;29;19965;-75
2023/07/02 04:54:40;;;;;;;;;;;17.50;99.90;;;;;;2037378;29;20016;-77
2023/07/02 04:55:41;;;;;;;;;;;17.50;99.90;;;;;;2042154;28;20370;-75
2023/07/02 04:56:41;;;;;;;;;;;17.60;99.90;;;;;;2037205;29;19950;-75
2023/07/02 04:57:44;;;;;;;;;;;17.50;99.90;;;;;;2040660;29;20337;-75
2023/07/02 04:58:44;;;;;;;;;;;17.60;99.90;;;;;;2039944;28;19952;-75
2023/07/02 04:59:45;;;;;;;;;;;17.60;99.90;;;;;;2039810;28;19922;-75
2023/07/02 05:00:45;;;;;;;;;;;17.60;99.90;;;;;;2040615;29;19918;-75
2023/07/02 05:01:45;;;;;;;;;;;17.60;99.90;;;;;;2049081;28;19914;-76
2023/07/02 05:02:46;;;;;;;;;;;17.50;99.90;;;;;;2046912;28;19910;-76
2023/07/02 05:03:46;;;;;;;;;;;17.60;99.90;;;;;;2040041;29;20441;-76
2023/07/02 05:04:47;;;;;;;;;;;17.50;99.90;;;;;;2039288;28;19918;-76
2023/07/02 05:05:48;;;;;;;;;;;17.50;99.90;;;;;;2039209;28;19925;-76
2023/07/02 05:06:48;;;;;;;;;;;17.60;99.90;;;;;;2042474;28;20001;-76
2023/07/02 05:07:48;;;;;;;;;;;17.60;99.90;;;;;;2047677;28;19921;-76
2023/07/02 05:08:49;;;;;;;;;;;17.60;99.90;;;;;;2043809;28;19914;-77
2023/07/02 05:09:52;;;;;;;;;;;17.70;99.90;;;;;;2040313;29;20502;-78
2023/07/02 05:10:52;;;;;;;;;;;17.70;99.90;;;;;;2039991;29;19921;-78
2023/07/02 05:11:53;;;;;;;;;;;17.70;99.90;;;;;;2046158;28;19997;-77
2023/07/02 05:12:53;;;;;;;;;;;17.70;99.90;;;;;;2039211;28;19970;-77
2023/07/02 05:13:54;;;;;;;;;;;17.70;99.90;;;;;;2038770;28;19961;-75
2023/07/02 05:14:54;;;;;;;;;;;17.70;99.90;;;;;;2041626;28;19982;-77
2023/07/02 05:15:54;;;;;;;;;;;17.70;99.90;;;;;;2040783;29;19919;-75
2023/07/02 05:16:55;;;;;;;;;;;17.80;99.90;;;;;;2041196;29;20366;-77
2023/07/02 05:17:55;;;;;;;;;;;17.80;99.90;;;;;;2043993;28;20361;-76
2023/07/02 05:18:56;;;;;;;;;;;17.80;99.90;;;;;;2041592;29;19910;-75
2023/07/02 05:19:56;;;;;;;;;;;17.80;99.90;;;;;;2039883;28;19984;-76
2023/07/02 05:20:57;;;;;;;;;;;17.90;99.90;;;;;;2039228;28;19918;-77
2023/07/02 05:21:57;;;;;;;;;;;17.90;99.90;;;;;;2039353;29;19918;-76
2023/07/02 05:22:58;;;;;;;;;;;17.90;99.90;;;;;;2039249;29;19911;-77
2023/07/02 05:23:58;;;;;;;;;;;17.90;99.90;;;;;;2044307;28;19910;-74
2023/07/02 05:24:59;;;;;;;;;;;17.90;99.90;;;;;;2041004;28;19925;-76
2023/07/02 05:25:59;;;;;;;;;;;17.90;99.90;;;;;;2036849;29;20325;-76
2023/07/02 05:27:00;;;;;;;;;;;17.90;99.90;;;;;;2040759;29;19948;-75
2023/07/02 05:28:00;;;;;;;;;;;18.00;99.90;;;;;;2045068;28;19910;-76
2023/07/02 05:29:01;;;;;;;;;;;18.00;99.90;;;;;;2046861;28;19910;-77
2023/07/02 05:30:02;;;;;;;;;;;18.10;99.90;;;;;;2038388;29;19954;-77
2023/07/02 05:31:03;;;;;;;;;;;18.10;99.90;;;;;;2038652;28;20142;-77
2023/07/02 05:32:03;;;;;;;;;;;18.10;99.90;;;;;;2040711;28;19921;-76
2023/07/02 05:33:04;;;;;;;;;;;18.20;99.90;;;;;;2047831;28;19972;-77
2023/07/02 05:34:04;;;;;;;;;;;18.30;99.90;;;;;;2044392;28;19929;-76
2023/07/02 05:35:05;;;;;;;;;;;18.30;99.90;;;;;;2039476;29;19926;-76
2023/07/02 05:36:05;;;;;;;;;;;18.30;99.90;;;;;;2041838;29;20341;-76
2023/07/02 05:37:06;;;;;;;;;;;18.40;99.90;;;;;;2039444;28;19915;-75
2023/07/02 05:38:06;;;;;;;;;;;18.50;99.90;;;;;;2039376;28;20374;-76
2023/07/02 05:39:07;;;;;;;;;;;18.60;99.90;;;;;;2039121;28;19914;-77
2023/07/02 05:40:07;;;;;;;;;;;18.60;99.90;;;;;;2039733;28;19922;-77
2023/07/02 05:41:08;;;;;;;;;;;18.70;99.90;;;;;;2039966;28;20021;-76
2023/07/02 05:42:08;;;;;;;;;;;18.80;99.90;;;;;;2039915;28;19911;-76
2023/07/02 05:43:09;;;;;;;;;;;18.90;99.90;;;;;;2041875;28;19959;-76
2023/07/02 05:44:09;;;;;;;;;;;19.00;99.90;;;;;;2035526;29;19915;-75
2023/07/02 05:45:10;;;;;;;;;;;19.00;99.90;;;;;;2040629;29;19925;-75
2023/07/02 05:46:12;;;;;;;;;;;19.10;99.90;;;;;;2040738;29;20434;-76
2023/07/02 05:47:12;;;;;;;;;;;19.20;99.90;;;;;;2039477;29;19915;-75
2023/07/02 05:48:13;;;;;;;;;;;19.20;99.90;;;;;;2039009;29;19957;-75
2023/07/02 05:49:13;;;;;;;;;;;19.20;99.90;;;;;;2039248;28;19914;-76
2023/07/02 05:50:14;;;;;;;;;;;19.30;99.90;;;;;;2039328;28;20362;-75
2023/07/02 05:51:19;;;;;;;;;;;19.30;99.90;;;;;;2041536;28;19926;-76
2023/07/02 05:52:20;;;;;;;;;;;19.30;99.90;;;;;;2037852;28;19915;-77
2023/07/02 05:53:20;;;;;;;;;;;19.30;99.90;;;;;;2039953;29;20400;-76
2023/07/02 05:54:21;;;;;;;;;;;19.30;99.90;;;;;;2035991;29;19925;-76